This is the latest recevied weather packets stored in our database for station/object KC8JWT. If no packets are shown the sender has not sent any weather packets the latest 10 day(s).
| Time | Temp. | Humidity | Pressure | Rain* | Wind** | Luminosity | Snow |
|---|---|---|---|---|---|---|---|
| 1777574798 | 10° C | 88% | 1015.3 hPa | 1.27 mm | - | 298 W/m² | - |
| 1777573888 | 12.22° C | 82% | 1015.5 hPa | 0 mm | - | 63 W/m² | - |
| 1777572676 | 12.22° C | 79% | 1015 hPa | 0 mm | - | 337 W/m² | - |
| 1777572371 | 12.22° C | 81% | 1015.1 hPa | 0 mm | - | 339 W/m² | - |
| 1777572068 | 12.22° C | 84% | 1015.1 hPa | 0 mm | - | 355 W/m² | - |
| 1777571767 | 12.78° C | 82% | 1015.2 hPa | 0 mm | - | 342 W/m² | - |
| 1777571465 | 13.33° C | 80% | 1015 hPa | 0 mm | - | 207 W/m² | - |
| 1777570857 | 13.33° C | 83% | 1015.2 hPa | 0 mm | - | 384 W/m² | - |
| 1777570553 | 13.33° C | 81% | 1015.2 hPa | 0 mm | - | 494 W/m² | - |
| 1777570250 | 12.78° C | 79% | 1015.1 hPa | 0 mm | - | 353 W/m² | - |
| 1777569945 | 12.22° C | 81% | 1015.2 hPa | 0 mm | - | 433 W/m² | - |
| 1777569034 | 12.78° C | 81% | 1015.1 hPa | 0 mm | - | 314 W/m² | - |
| 1777568731 | 12.22° C | 81% | 1014.7 hPa | 0 mm | - | 200 W/m² | - |
| 1777567822 | 13.89° C | 83% | 1015 hPa | 0 mm | - | 421 W/m² | - |
| 1777567518 | 12.78° C | 87% | 1014.8 hPa | 0 mm | - | 1079 W/m² | - |
| 1777566914 | 11.11° C | 90% | 1015.2 hPa | 0 mm | - | 622 W/m² | - |
| 1777566309 | 10.56° C | 90% | 1015.2 hPa | 1.78 mm | - | 336 W/m² | - |
| 1777565094 | 13.33° C | 77% | 1015.1 hPa | 0 mm | - | 231 W/m² | - |
| 1777563573 | 11.11° C | 86% | 1015 hPa | 0 mm | - | 473 W/m² | - |
| 1777563272 | 11.11° C | 87% | 1015.2 hPa | 0 mm | - | 336 W/m² | - |
| 1777562969 | 10.56° C | 87% | 1015.1 hPa | 0 mm | - | 242 W/m² | - |
| 1777562666 | 11.11° C | 84% | 1015 hPa | 0 mm | - | 169 W/m² | - |
| 1777562366 | 11.67° C | 82% | 1015 hPa | 0 mm | - | 223 W/m² | - |
| 1777560850 | 10.56° C | 81% | 1014.6 hPa | 0 mm | - | 170 W/m² | - |
| 1777559643 | 13.89° C | 74% | 1014.5 hPa | 0 mm | - | 97 W/m² | - |
* Rain latest hour (hover to see other rain measurements)
** Current wind speed in m/s (hover to see current wind gust speed)